OKBO2: North Canadian River at Britton Rd at OKC, OK

Data processed at Wed May 22 2019 23:50


All information presented herein is the property of the government of the United States of America and may be revised or deleted at any time without prior notice.
Dissemination of this information without the expressed written consent of the Public Affairs Office, Tulsa District U.S. Army Corps of Engineers is strictly prohibited.
These data are gathered electronically and, as presented, have not undergone any form of quality control. These data are not guaranteed to be valid or correct.
Go to home page.
Go to station list.
Go to home page.

Upstream stations:

Downstream station:
Previous Day
Next Day
Current Day
    
SHEF ID:       OKBO2     North Canadian River at Britton
STATION TYPE:  

                STAGE  RIV-FLOW  WTR-TEMP   DIS-OXY   CONDUCT  BAT-LOAD
                   ft       cfs         F      mg/l   umho/cm      volt
              Ccp-Rev   Ccp-Rev   Ccp-Rev   Ccp-Rev   Ccp-Rev   Ccp-Rev
(US/Central)
05/22 00:00     16.50     10437     65.86      7.76       298     12.77
05/22 01:00     16.27      9958     65.68      7.81       297     12.77
05/22 02:00     16.07      9528     65.53      7.84       296     12.71
05/22 03:00     15.92      9214     65.39      7.88       294     12.71
05/22 04:00     15.79      8946     65.26      7.93       289     12.71
05/22 05:00     15.68      8724     65.12      7.98       284     12.71
05/22 06:00     15.65      8664     64.99      8.04       275     12.65
05/22 07:00     15.60      8564     64.85      8.10       268     12.65
05/22 08:00     15.64      8644     64.81      8.13       261     12.77
05/22 09:00     15.80      8967     64.89      8.18       258     13.36
05/22 10:00     16.01      9402     65.17      8.21       260     14.00
05/22 11:00     16.11      9613     65.55      8.20       266     13.94
05/22 12:00     16.24      9893     65.97      8.13       278     13.42
05/22 13:00     16.41     10248     66.06      8.11       291     13.36
05/22 14:00     16.56     10564     66.36      8.08       301     13.48
05/22 15:00     16.72     10904     66.63      7.97       333     13.30
05/22 16:00     17.04     11589     66.90      7.87       362     13.24
05/22 17:00     17.21     11964     67.03      7.75       376     13.18
05/22 18:00     17.41     12413     67.21      7.63       387     13.24
05/22 19:00     17.55     12733     67.19      7.49       388     13.24
05/22 20:00     17.62     12896     67.32      7.44       386     13.30
05/22 21:00     17.70     13082     67.41      7.43       386     13.18
05/22 22:00     17.74     13176     67.41      7.41       390     12.89
05/22 23:00     17.89     13532     67.46      7.38       398     12.83